Time;durP1;ratioP1;P1;durP2;ratioP2;P2;SDS_P1;SDS_P2;PMS_P1;PMS_P2;Temp;Humidity;BMP_temperature;BMP_pressure;BME280_temperature;BME280_humidity;BME280_pressure;Samples;Min_cycle;Max_cycle;Signal;HPM_P1;HPM_P2
2023/07/03 00:01:43;;;;;;;;;;;20.50;53.30;;;;;;5111933;28;19927;-58
2023/07/03 00:04:10;;;;;;;;;;;20.50;53.30;;;;;;5128093;28;19931;-58
2023/07/03 00:06:36;;;;;;;;;;;20.50;53.30;;;;;;5112316;28;19920;-58
2023/07/03 00:09:02;;;;;;;;;;;20.50;53.40;;;;;;5112029;28;19920;-58
2023/07/03 00:11:28;;;;;;;;;;;20.50;53.40;;;;;;5112282;28;19930;-58
2023/07/03 00:13:53;;;;;;;;;;;20.50;54.20;;;;;;5127765;28;20367;-58
2023/07/03 00:16:19;;;;;;;;;;;20.50;53.40;;;;;;5094219;28;19920;-58
2023/07/03 00:18:44;;;;;;;;;;;20.50;53.50;;;;;;5093821;28;19926;-58
2023/07/03 00:21:10;;;;;;;;;;;20.50;53.50;;;;;;5095927;28;20376;-58
2023/07/03 00:23:35;;;;;;;;;;;20.50;53.50;;;;;;5097403;28;19920;-58
2023/07/03 00:26:01;;;;;;;;;;;20.50;53.50;;;;;;5097860;28;19919;-58
2023/07/03 00:28:27;;;;;;;;;;;20.50;53.50;;;;;;5115890;28;19920;-58
2023/07/03 00:30:52;;;;;;;;;;;20.50;53.60;;;;;;5097542;28;19920;-58
2023/07/03 00:33:17;;;;;;;;;;;20.50;53.60;;;;;;5097479;28;19976;-59
2023/07/03 00:35:43;;;;;;;;;;;20.50;53.60;;;;;;5097564;28;19969;-59
2023/07/03 00:38:08;;;;;;;;;;;20.50;53.60;;;;;;5115578;28;20441;-58
2023/07/03 00:40:34;;;;;;;;;;;20.50;53.60;;;;;;5097102;28;19927;-58
2023/07/03 00:43:00;;;;;;;;;;;20.50;53.70;;;;;;5131400;27;20034;-58
2023/07/03 00:45:26;;;;;;;;;;;20.50;53.70;;;;;;5097270;28;19927;-58
2023/07/03 00:47:51;;;;;;;;;;;20.50;53.70;;;;;;5097054;28;19920;-58
2023/07/03 00:50:17;;;;;;;;;;;20.50;53.80;;;;;;5097039;28;19926;-58
2023/07/03 00:52:44;;;;;;;;;;;20.50;53.80;;;;;;5096947;28;19919;-58
2023/07/03 00:55:11;;;;;;;;;;;20.50;53.80;;;;;;5097103;28;19920;-58
2023/07/03 00:57:36;;;;;;;;;;;20.50;53.80;;;;;;5096911;28;19927;-58
2023/07/03 01:00:04;;;;;;;;;;;20.50;53.80;;;;;;5097012;28;19920;-59
2023/07/03 01:02:34;;;;;;;;;;;20.40;53.80;;;;;;5097212;28;19927;-58
2023/07/03 01:05:02;;;;;;;;;;;20.40;53.90;;;;;;5096849;28;20286;-58
2023/07/03 01:07:30;;;;;;;;;;;20.40;53.80;;;;;;5096971;28;19939;-58
2023/07/03 01:10:00;;;;;;;;;;;20.40;53.90;;;;;;5114476;28;19920;-58
2023/07/03 01:12:27;;;;;;;;;;;20.50;54.00;;;;;;5096136;28;19965;-58
2023/07/03 01:14:53;;;;;;;;;;;20.50;54.00;;;;;;5114745;28;19924;-58
2023/07/03 01:17:19;;;;;;;;;;;20.50;54.00;;;;;;5095972;28;19920;-58
2023/07/03 01:19:46;;;;;;;;;;;20.50;54.10;;;;;;5114394;28;20034;-58
2023/07/03 01:22:31;;;;;;;;;;;20.50;54.10;;;;;;5096336;28;20282;-58
2023/07/03 01:24:58;;;;;;;;;;;20.50;54.10;;;;;;5096280;28;19927;-58
2023/07/03 01:27:26;;;;;;;;;;;20.40;54.10;;;;;;5096160;28;19919;-58
2023/07/03 01:29:52;;;;;;;;;;;20.40;54.10;;;;;;5096229;28;19919;-58
2023/07/03 01:32:20;;;;;;;;;;;20.40;54.10;;;;;;5114095;28;19926;-58
2023/07/03 01:34:46;;;;;;;;;;;20.40;54.20;;;;;;5095905;28;19924;-58
2023/07/03 01:37:13;;;;;;;;;;;20.40;54.20;;;;;;5095362;28;19927;-58
2023/07/03 01:39:39;;;;;;;;;;;20.40;54.20;;;;;;5095689;28;19928;-58
2023/07/03 01:42:05;;;;;;;;;;;20.40;54.20;;;;;;5095613;28;20004;-58
2023/07/03 01:44:30;;;;;;;;;;;20.40;54.20;;;;;;5096190;28;19970;-58
2023/07/03 01:47:03;;;;;;;;;;;20.40;54.30;;;;;;5095862;28;20384;-58
2023/07/03 01:49:28;;;;;;;;;;;20.40;54.30;;;;;;5113723;28;20012;-58
2023/07/03 01:55:08;;;;;;;;;;;20.40;54.30;;;;;;5109890;27;20630;-58
2023/07/03 01:57:53;;;;;;;;;;;20.40;54.40;;;;;;5108251;28;20225;-58
2023/07/03 02:00:21;;;;;;;;;;;20.40;54.40;;;;;;5108492;28;19928;-58
2023/07/03 02:02:49;;;;;;;;;;;20.40;54.40;;;;;;5109773;28;19955;-58
2023/07/03 02:05:17;;;;;;;;;;;20.40;54.50;;;;;;5109111;28;19926;-58
2023/07/03 02:07:45;;;;;;;;;;;20.40;54.50;;;;;;5108913;28;19966;-59
2023/07/03 02:10:10;;;;;;;;;;;20.40;54.50;;;;;;5108934;28;20014;-58
2023/07/03 02:12:36;;;;;;;;;;;20.40;54.60;;;;;;5108492;28;20435;-58
2023/07/03 02:15:02;;;;;;;;;;;20.40;54.60;;;;;;5109768;28;19951;-59
2023/07/03 02:17:28;;;;;;;;;;;20.40;54.60;;;;;;5108760;28;19955;-58
2023/07/03 02:19:54;;;;;;;;;;;20.40;54.60;;;;;;5108822;28;19974;-58
2023/07/03 02:22:20;;;;;;;;;;;20.40;54.60;;;;;;5108650;28;19958;-58
2023/07/03 02:24:45;;;;;;;;;;;20.40;54.70;;;;;;5109788;28;20363;-58
2023/07/03 02:27:11;;;;;;;;;;;20.40;54.70;;;;;;5108701;28;19924;-58
2023/07/03 02:29:36;;;;;;;;;;;20.30;54.70;;;;;;5108349;28;20436;-58
2023/07/03 02:32:05;;;;;;;;;;;20.30;54.70;;;;;;5109813;28;20263;-58
2023/07/03 02:34:32;;;;;;;;;;;20.30;54.70;;;;;;5108116;28;19924;-58
2023/07/03 02:36:58;;;;;;;;;;;20.30;54.70;;;;;;5108599;28;20103;-58
2023/07/03 02:39:24;;;;;;;;;;;20.30;54.80;;;;;;5109449;28;19951;-58
2023/07/03 02:41:50;;;;;;;;;;;20.30;54.80;;;;;;5108352;28;19978;-58
2023/07/03 02:44:18;;;;;;;;;;;20.30;54.80;;;;;;5109180;28;19973;-58
2023/07/03 02:46:43;;;;;;;;;;;20.30;54.80;;;;;;5108281;28;19924;-59
2023/07/03 02:49:09;;;;;;;;;;;20.30;54.90;;;;;;5108264;28;20384;-58
2023/07/03 02:51:34;;;;;;;;;;;20.30;54.80;;;;;;5109210;28;19924;-58
2023/07/03 02:54:00;;;;;;;;;;;20.30;54.90;;;;;;5107453;28;20019;-58
2023/07/03 02:56:25;;;;;;;;;;;20.30;55.00;;;;;;5107838;28;19981;-58
2023/07/03 02:58:51;;;;;;;;;;;20.30;55.00;;;;;;5107900;28;19924;-58
2023/07/03 03:01:16;;;;;;;;;;;20.30;55.00;;;;;;5109232;28;19958;-58
2023/07/03 03:03:44;;;;;;;;;;;20.30;55.10;;;;;;5107635;28;20393;-58
2023/07/03 03:06:09;;;;;;;;;;;20.30;55.10;;;;;;5095530;28;19946;-58
2023/07/03 03:08:35;;;;;;;;;;;20.30;55.20;;;;;;5094085;28;19924;-58
2023/07/03 03:11:00;;;;;;;;;;;20.30;55.20;;;;;;5093939;28;19924;-58
2023/07/03 03:13:26;;;;;;;;;;;20.30;55.20;;;;;;5127594;27;19924;-58
2023/07/03 03:15:52;;;;;;;;;;;20.30;55.20;;;;;;5093861;28;19920;-58
2023/07/03 03:18:17;;;;;;;;;;;20.30;55.20;;;;;;5093286;28;20394;-58
2023/07/03 03:20:43;;;;;;;;;;;20.30;55.20;;;;;;5110794;27;19920;-58
2023/07/03 03:23:09;;;;;;;;;;;20.20;55.20;;;;;;5107212;28;20286;-58
2023/07/03 03:25:34;;;;;;;;;;;20.30;55.30;;;;;;5107394;28;19924;-58
2023/07/03 03:28:00;;;;;;;;;;;20.30;55.30;;;;;;5074581;28;19920;-58
2023/07/03 03:30:25;;;;;;;;;;;20.30;55.40;;;;;;5072852;28;19960;-58
2023/07/03 03:32:51;;;;;;;;;;;20.20;55.30;;;;;;5088582;28;20010;-58
2023/07/03 03:35:16;;;;;;;;;;;20.20;55.30;;;;;;5093111;28;19924;-58
2023/07/03 03:37:42;;;;;;;;;;;20.20;55.40;;;;;;5093046;28;19946;-58
2023/07/03 03:40:09;;;;;;;;;;;20.20;55.40;;;;;;5092968;28;19928;-58
2023/07/03 03:42:35;;;;;;;;;;;20.20;55.40;;;;;;5094422;28;19930;-58
2023/07/03 03:45:01;;;;;;;;;;;20.20;55.40;;;;;;5093275;28;20376;-59
2023/07/03 03:47:27;;;;;;;;;;;20.20;55.50;;;;;;5093105;28;19965;-58
2023/07/03 03:49:53;;;;;;;;;;;20.20;55.50;;;;;;5127389;27;19959;-58
2023/07/03 03:52:19;;;;;;;;;;;20.20;55.50;;;;;;5094265;28;20020;-58
2023/07/03 03:54:46;;;;;;;;;;;20.20;55.60;;;;;;5092473;28;20429;-58
2023/07/03 03:57:13;;;;;;;;;;;20.20;55.50;;;;;;5093976;28;19927;-58
2023/07/03 03:59:38;;;;;;;;;;;20.20;55.60;;;;;;5092562;28;19920;-58
2023/07/03 04:02:04;;;;;;;;;;;20.20;55.60;;;;;;5093596;28;19920;-58
2023/07/03 04:04:29;;;;;;;;;;;20.20;55.60;;;;;;5093281;28;19942;-59
2023/07/03 04:06:55;;;;;;;;;;;20.20;55.60;;;;;;5093616;28;19942;-58
2023/07/03 04:09:20;;;;;;;;;;;20.20;55.60;;;;;;5093914;28;19924;-57
2023/07/03 04:11:46;;;;;;;;;;;20.20;55.70;;;;;;5092665;28;19927;-58
2023/07/03 04:14:12;;;;;;;;;;;20.20;55.70;;;;;;5092679;28;20341;-58
2023/07/03 04:16:38;;;;;;;;;;;20.20;55.70;;;;;;5091669;28;19924;-59
2023/07/03 04:19:04;;;;;;;;;;;20.20;55.70;;;;;;5092962;28;19928;-58
2023/07/03 04:21:29;;;;;;;;;;;20.20;55.70;;;;;;5093807;28;19994;-58
2023/07/03 04:23:55;;;;;;;;;;;20.20;55.70;;;;;;5092168;28;19924;-58
2023/07/03 04:26:22;;;;;;;;;;;20.20;55.80;;;;;;5092343;28;19978;-58
2023/07/03 04:28:48;;;;;;;;;;;20.10;55.70;;;;;;5092701;28;20375;-58
2023/07/03 04:31:13;;;;;;;;;;;20.10;55.70;;;;;;5092348;28;20020;-59
2023/07/03 04:33:39;;;;;;;;;;;20.10;55.70;;;;;;5092443;28;19935;-58
2023/07/03 04:36:04;;;;;;;;;;;20.10;55.80;;;;;;5092220;28;19920;-58
2023/07/03 04:38:30;;;;;;;;;;;20.10;55.80;;;;;;5092204;28;19927;-58
2023/07/03 04:40:56;;;;;;;;;;;20.10;55.80;;;;;;5093590;28;19927;-58
2023/07/03 04:43:21;;;;;;;;;;;20.10;55.80;;;;;;5092364;28;20027;-58
2023/07/03 04:45:48;;;;;;;;;;;20.10;55.90;;;;;;5092134;28;20232;-58
2023/07/03 04:48:14;;;;;;;;;;;20.10;55.90;;;;;;5091973;28;19920;-59
2023/07/03 04:50:39;;;;;;;;;;;20.10;55.90;;;;;;5092083;28;19927;-58
2023/07/03 04:53:05;;;;;;;;;;;20.10;55.90;;;;;;5091623;28;19924;-60
2023/07/03 04:55:31;;;;;;;;;;;20.10;55.90;;;;;;5091975;28;19924;-58
2023/07/03 04:57:59;;;;;;;;;;;20.10;56.00;;;;;;5092085;28;19926;-58
2023/07/03 05:00:24;;;;;;;;;;;20.20;56.00;;;;;;5093123;28;19923;-58
2023/07/03 05:02:51;;;;;;;;;;;20.10;56.00;;;;;;5092969;28;19927;-58
2023/07/03 05:05:18;;;;;;;;;;;20.10;56.00;;;;;;5091788;28;19963;-58
2023/07/03 05:07:44;;;;;;;;;;;20.10;56.00;;;;;;5091487;28;19927;-58
2023/07/03 05:10:10;;;;;;;;;;;20.10;56.00;;;;;;5092583;28;19920;-58
2023/07/03 05:12:36;;;;;;;;;;;20.10;56.10;;;;;;5091548;28;20379;-58
2023/07/03 05:15:03;;;;;;;;;;;20.10;56.00;;;;;;5125710;27;19981;-59
2023/07/03 05:17:29;;;;;;;;;;;20.10;56.10;;;;;;5092448;28;19931;-58
2023/07/03 05:19:55;;;;;;;;;;;20.10;56.00;;;;;;5091242;28;19920;-58
2023/07/03 05:22:21;;;;;;;;;;;20.00;56.00;;;;;;5089685;28;19976;-59
2023/07/03 05:24:47;;;;;;;;;;;20.00;56.10;;;;;;5090576;28;19920;-60
2023/07/03 05:27:13;;;;;;;;;;;20.10;56.40;;;;;;5091148;28;19920;-60
2023/07/03 05:29:38;;;;;;;;;;;20.10;56.40;;;;;;5090833;28;20379;-59
2023/07/03 05:32:04;;;;;;;;;;;20.10;56.80;;;;;;5087211;28;19920;-59
2023/07/03 05:34:30;;;;;;;;;;;20.10;56.80;;;;;;5088553;28;20276;-61
2023/07/03 05:36:56;;;;;;;;;;;20.00;56.70;;;;;;5091120;28;19920;-60
2023/07/03 05:39:22;;;;;;;;;;;20.10;56.70;;;;;;5091040;28;19920;-61
2023/07/03 05:41:47;;;;;;;;;;;20.10;56.90;;;;;;5087935;28;20378;-59
2023/07/03 05:44:13;;;;;;;;;;;20.00;57.00;;;;;;5089712;28;20006;-59
2023/07/03 05:46:39;;;;;;;;;;;20.00;57.30;;;;;;5088839;28;19927;-60
2023/07/03 05:49:04;;;;;;;;;;;20.10;57.40;;;;;;5086807;28;19926;-60
2023/07/03 05:51:29;;;;;;;;;;;20.10;57.80;;;;;;5084872;28;19968;-59
2023/07/03 05:53:55;;;;;;;;;;;20.10;57.60;;;;;;5082842;28;20387;-59
2023/07/03 05:56:20;;;;;;;;;;;20.10;57.30;;;;;;5089954;28;19950;-59
2023/07/03 05:58:46;;;;;;;;;;;20.10;57.30;;;;;;5088705;28;20422;-59
2023/07/03 06:01:12;;;;;;;;;;;20.10;57.30;;;;;;5087081;28;20371;-59
2023/07/03 06:03:37;;;;;;;;;;;20.10;57.30;;;;;;5087625;28;19928;-60
2023/07/03 06:06:05;;;;;;;;;;;20.10;57.10;;;;;;5083386;28;20091;-59
2023/07/03 06:08:30;;;;;;;;;;;20.10;57.20;;;;;;5088228;28;19920;-60
2023/07/03 06:10:56;;;;;;;;;;;20.10;57.10;;;;;;5086411;28;19981;-59
2023/07/03 06:13:21;;;;;;;;;;;20.10;57.00;;;;;;5085366;28;19938;-59
2023/07/03 06:15:47;;;;;;;;;;;20.10;57.00;;;;;;5088374;28;19919;-59
2023/07/03 06:18:13;;;;;;;;;;;20.10;57.00;;;;;;5071580;28;20305;-59
2023/07/03 06:20:39;;;;;;;;;;;20.10;57.00;;;;;;5072390;28;20351;-60
2023/07/03 06:23:05;;;;;;;;;;;20.10;57.00;;;;;;5075131;28;19967;-60
2023/07/03 06:25:30;;;;;;;;;;;20.00;56.90;;;;;;5072943;28;20018;-60
2023/07/03 06:27:56;;;;;;;;;;;20.10;56.80;;;;;;5071334;28;19946;-58
2023/07/03 06:30:21;;;;;;;;;;;20.10;57.00;;;;;;5048253;28;19924;-59
2023/07/03 06:32:47;;;;;;;;;;;20.10;57.10;;;;;;5064512;28;19935;-58
2023/07/03 06:35:13;;;;;;;;;;;20.10;57.00;;;;;;5065080;28;19942;-58
2023/07/03 06:37:38;;;;;;;;;;;20.10;57.00;;;;;;5063312;28;20418;-59
2023/07/03 06:40:09;;;;;;;;;;;20.10;57.00;;;;;;5066187;28;19967;-58
2023/07/03 06:42:34;;;;;;;;;;;20.10;56.90;;;;;;5071750;28;19927;-59
2023/07/03 06:45:00;;;;;;;;;;;20.10;56.80;;;;;;5074335;28;19927;-59
2023/07/03 06:47:25;;;;;;;;;;;20.20;56.90;;;;;;5075713;28;20314;-58
2023/07/03 06:49:51;;;;;;;;;;;20.10;56.70;;;;;;5070851;28;19928;-58
2023/07/03 06:52:16;;;;;;;;;;;20.10;57.00;;;;;;5071961;28;20302;-58
2023/07/03 06:54:42;;;;;;;;;;;20.10;56.90;;;;;;5095244;28;19928;-57
2023/07/03 06:57:07;;;;;;;;;;;20.20;57.00;;;;;;5071600;28;20216;-58
2023/07/03 06:59:33;;;;;;;;;;;20.20;57.70;;;;;;5072709;28;19928;-58
2023/07/03 07:01:58;;;;;;;;;;;20.20;57.00;;;;;;5088665;28;19950;-58
2023/07/03 07:04:27;;;;;;;;;;;20.20;57.10;;;;;;5090043;28;19981;-57
2023/07/03 07:06:53;;;;;;;;;;;20.20;57.30;;;;;;5106760;27;19981;-58
2023/07/03 07:09:19;;;;;;;;;;;20.20;57.60;;;;;;5091673;28;19924;-58
2023/07/03 07:11:46;;;;;;;;;;;20.20;57.50;;;;;;5088419;28;20700;-57
2023/07/03 07:14:13;;;;;;;;;;;20.30;57.70;;;;;;5108714;27;19935;-57
2023/07/03 07:16:40;;;;;;;;;;;20.30;57.80;;;;;;5092508;28;20481;-58
2023/07/03 07:19:07;;;;;;;;;;;20.30;57.80;;;;;;5074572;28;20347;-59
2023/07/03 07:21:34;;;;;;;;;;;20.30;57.80;;;;;;5110391;27;19932;-58
2023/07/03 07:24:01;;;;;;;;;;;20.30;57.80;;;;;;5076012;28;20410;-58
2023/07/03 07:26:28;;;;;;;;;;;20.30;58.00;;;;;;5106054;27;19924;-57
2023/07/03 07:28:54;;;;;;;;;;;20.30;57.80;;;;;;5090928;27;20325;-57
2023/07/03 07:31:21;;;;;;;;;;;20.40;57.40;;;;;;5091596;28;19928;-57
2023/07/03 07:33:46;;;;;;;;;;;20.40;57.30;;;;;;5070595;27;20060;-57
2023/07/03 07:36:13;;;;;;;;;;;20.40;57.30;;;;;;5072764;28;19928;-59
2023/07/03 07:38:38;;;;;;;;;;;20.40;57.00;;;;;;5070805;28;19927;-59
2023/07/03 07:41:04;;;;;;;;;;;20.40;57.10;;;;;;5089343;28;19924;-59
2023/07/03 07:43:29;;;;;;;;;;;20.40;57.20;;;;;;5091986;28;19930;-58
2023/07/03 07:45:55;;;;;;;;;;;20.40;57.00;;;;;;5090125;28;19931;-58
2023/07/03 07:48:21;;;;;;;;;;;20.40;57.40;;;;;;5089926;28;19954;-58
2023/07/03 07:50:46;;;;;;;;;;;20.40;57.40;;;;;;5091976;28;19938;-57
2023/07/03 07:53:12;;;;;;;;;;;20.40;57.30;;;;;;5090988;28;19931;-58
2023/07/03 07:55:38;;;;;;;;;;;20.40;57.30;;;;;;5091662;28;20365;-58
2023/07/03 07:58:03;;;;;;;;;;;20.40;57.40;;;;;;5073150;28;20027;-59
2023/07/03 08:00:29;;;;;;;;;;;20.40;57.50;;;;;;5103862;27;19932;-59
2023/07/03 08:02:54;;;;;;;;;;;20.50;57.30;;;;;;5080444;28;19923;-59
2023/07/03 08:05:20;;;;;;;;;;;20.40;57.30;;;;;;5089101;28;19931;-59
2023/07/03 08:07:46;;;;;;;;;;;20.50;57.40;;;;;;5079128;28;20474;-58
2023/07/03 08:10:11;;;;;;;;;;;20.50;57.50;;;;;;5075579;27;19980;-59
2023/07/03 08:12:37;;;;;;;;;;;20.50;57.30;;;;;;5075693;28;19924;-59
2023/07/03 08:15:03;;;;;;;;;;;20.50;57.40;;;;;;5074846;28;20050;-58
2023/07/03 08:17:29;;;;;;;;;;;20.50;57.80;;;;;;5072362;28;19956;-58
2023/07/03 08:19:56;;;;;;;;;;;20.50;57.90;;;;;;5105569;27;19972;-58
2023/07/03 08:22:22;;;;;;;;;;;20.50;57.60;;;;;;5073604;28;19953;-58
2023/07/03 08:24:47;;;;;;;;;;;20.60;57.40;;;;;;5078578;28;19928;-58
2023/07/03 08:27:13;;;;;;;;;;;20.60;57.20;;;;;;5109859;27;19936;-58
2023/07/03 08:29:38;;;;;;;;;;;20.60;56.90;;;;;;5108262;27;19942;-59
2023/07/03 08:32:06;;;;;;;;;;;20.60;56.70;;;;;;5076491;28;20033;-58
2023/07/03 08:34:31;;;;;;;;;;;20.60;56.70;;;;;;5108197;27;19985;-59
2023/07/03 08:36:57;;;;;;;;;;;20.60;56.60;;;;;;5077871;28;20450;-58
2023/07/03 08:39:22;;;;;;;;;;;20.60;56.40;;;;;;5080342;28;19924;-58
2023/07/03 08:41:51;;;;;;;;;;;20.60;56.20;;;;;;5095331;28;20286;-59
2023/07/03 08:44:16;;;;;;;;;;;20.60;56.10;;;;;;5083955;28;19920;-59
2023/07/03 08:46:42;;;;;;;;;;;20.70;56.00;;;;;;5080481;28;20288;-58
2023/07/03 08:49:11;;;;;;;;;;;20.70;55.90;;;;;;5075295;28;19954;-59
2023/07/03 08:51:37;;;;;;;;;;;20.70;55.50;;;;;;5107894;27;20520;-59
2023/07/03 08:54:06;;;;;;;;;;;20.80;55.00;;;;;;5094350;28;19966;-58
2023/07/03 08:56:33;;;;;;;;;;;20.80;54.90;;;;;;5094067;28;19928;-58
2023/07/03 08:59:00;;;;;;;;;;;20.80;54.90;;;;;;5074793;28;19942;-58
2023/07/03 09:01:38;;;;;;;;;;;20.90;54.90;;;;;;5074301;28;19962;-58
2023/07/03 09:06:48;;;;;;;;;;;21.00;54.90;;;;;;5071316;27;20811;-57
2023/07/03 09:12:28;;;;;;;;;;;21.00;54.40;;;;;;5089125;27;19920;-57
2023/07/03 09:14:57;;;;;;;;;;;21.00;54.60;;;;;;5101919;28;19969;-58
2023/07/03 09:17:23;;;;;;;;;;;21.00;54.60;;;;;;5079326;28;19995;-58
2023/07/03 09:19:50;;;;;;;;;;;21.00;54.80;;;;;;5067633;28;19924;-57
2023/07/03 09:22:23;;;;;;;;;;;21.00;54.90;;;;;;5066618;28;20495;-63
2023/07/03 09:24:49;;;;;;;;;;;21.00;54.80;;;;;;5067853;28;19998;-57
2023/07/03 09:27:18;;;;;;;;;;;21.00;55.10;;;;;;5067294;28;20023;-57
2023/07/03 09:29:44;;;;;;;;;;;21.00;55.20;;;;;;5062817;28;20402;-58
2023/07/03 09:32:11;;;;;;;;;;;21.00;54.90;;;;;;5067534;28;19924;-58
2023/07/03 09:34:57;;;;;;;;;;;21.00;55.10;;;;;;5057561;28;19928;-58
2023/07/03 09:37:22;;;;;;;;;;;21.00;55.10;;;;;;5088524;27;20460;-58
2023/07/03 09:39:50;;;;;;;;;;;21.00;55.10;;;;;;5059458;28;19947;-58
2023/07/03 09:42:16;;;;;;;;;;;21.10;55.40;;;;;;5066606;28;20356;-58
2023/07/03 09:44:42;;;;;;;;;;;21.10;55.30;;;;;;5073743;28;19930;-58
2023/07/03 09:47:25;;;;;;;;;;;21.10;55.10;;;;;;5064823;28;20444;-60
2023/07/03 09:49:51;;;;;;;;;;;21.10;55.10;;;;;;5064678;28;19928;-59
2023/07/03 09:52:17;;;;;;;;;;;21.10;55.00;;;;;;5061402;28;20341;-59
2023/07/03 09:54:43;;;;;;;;;;;21.00;55.10;;;;;;5071676;28;19962;-57
2023/07/03 09:57:26;;;;;;;;;;;21.10;55.30;;;;;;5063578;28;19962;-58
2023/07/03 10:00:03;;;;;;;;;;;21.10;55.30;;;;;;5063839;28;21546;-58
2023/07/03 10:02:29;;;;;;;;;;;21.10;55.00;;;;;;5059378;28;20486;-59
2023/07/03 10:04:54;;;;;;;;;;;21.10;55.20;;;;;;5057742;28;19928;-58
2023/07/03 10:07:20;;;;;;;;;;;21.10;55.10;;;;;;5064646;28;20684;-59
2023/07/03 10:09:46;;;;;;;;;;;21.10;55.20;;;;;;5062846;28;19929;-58
2023/07/03 10:15:02;;;;;;;;;;;21.20;55.70;;;;;;5071276;27;20435;-58
2023/07/03 10:17:31;;;;;;;;;;;21.20;55.20;;;;;;5079461;28;20390;-62
2023/07/03 10:20:00;;;;;;;;;;;21.20;55.10;;;;;;5090034;28;20047;-66
2023/07/03 10:22:26;;;;;;;;;;;21.20;55.20;;;;;;5081774;28;19927;-60
2023/07/03 10:24:52;;;;;;;;;;;21.20;54.90;;;;;;5112732;27;19923;-67
2023/07/03 10:27:19;;;;;;;;;;;21.20;54.80;;;;;;5080783;28;19931;-60
2023/07/03 10:29:47;;;;;;;;;;;21.20;54.80;;;;;;5091729;28;19947;-60
2023/07/03 10:32:14;;;;;;;;;;;21.20;54.60;;;;;;5093641;28;19974;-60
2023/07/03 10:34:59;;;;;;;;;;;21.20;54.40;;;;;;5083899;28;20192;-60
2023/07/03 10:37:25;;;;;;;;;;;21.20;54.20;;;;;;5086559;28;19928;-60
2023/07/03 10:39:53;;;;;;;;;;;21.20;54.00;;;;;;5118937;27;19920;-59
2023/07/03 10:42:27;;;;;;;;;;;21.20;54.00;;;;;;5080499;28;20344;-58
2023/07/03 10:44:55;;;;;;;;;;;21.20;53.20;;;;;;5112705;27;20387;-61
2023/07/03 10:47:25;;;;;;;;;;;21.20;53.40;;;;;;5080387;28;20087;-63
2023/07/03 10:49:51;;;;;;;;;;;21.20;53.40;;;;;;5085738;28;19924;-58
2023/07/03 10:55:20;;;;;;;;;;;21.30;53.10;;;;;;5077943;27;19924;-58
2023/07/03 10:57:51;;;;;;;;;;;21.30;53.00;;;;;;5065788;28;20051;-59
2023/07/03 11:00:21;;;;;;;;;;;21.30;53.20;;;;;;5068005;28;20542;-58
2023/07/03 11:02:54;;;;;;;;;;;21.30;53.30;;;;;;5070320;28;19939;-59
2023/07/03 11:05:22;;;;;;;;;;;21.30;53.50;;;;;;5063216;28;19924;-59
2023/07/03 11:10:33;;;;;;;;;;;21.30;53.70;;;;;;5081411;27;20106;-59
2023/07/03 11:13:04;;;;;;;;;;;21.30;53.60;;;;;;5055534;28;20472;-59
2023/07/03 11:15:35;;;;;;;;;;;21.30;53.90;;;;;;5070543;28;19973;-60
2023/07/03 11:20:46;;;;;;;;;;;21.40;54.10;;;;;;5078618;27;19953;-59
2023/07/03 11:26:15;;;;;;;;;;;21.40;54.10;;;;;;5074786;27;19916;-59
2023/07/03 11:28:43;;;;;;;;;;;21.40;54.10;;;;;;5079440;28;19929;-60
2023/07/03 11:31:09;;;;;;;;;;;21.50;54.10;;;;;;5037207;28;19936;-64
2023/07/03 11:33:35;;;;;;;;;;;21.50;53.80;;;;;;5049317;28;20287;-60
2023/07/03 11:36:01;;;;;;;;;;;21.40;53.40;;;;;;5077862;28;19932;-59
2023/07/03 11:38:27;;;;;;;;;;;21.50;53.50;;;;;;5078405;28;19972;-59
2023/07/03 11:46:19;;;;;;;;;;;21.50;53.40;;;;;;5067375;27;19930;-60
2023/07/03 11:48:46;;;;;;;;;;;21.50;53.40;;;;;;5095855;28;20144;-60
2023/07/03 11:51:14;;;;;;;;;;;21.50;53.20;;;;;;5066962;28;20213;-59
2023/07/03 11:53:46;;;;;;;;;;;21.50;53.50;;;;;;5072320;28;20537;-60
2023/07/03 11:56:32;;;;;;;;;;;21.50;53.50;;;;;;5098807;28;21028;-59
2023/07/03 11:59:01;;;;;;;;;;;21.50;53.50;;;;;;5067773;28;20066;-59
2023/07/03 12:01:30;;;;;;;;;;;21.50;53.80;;;;;;5064287;28;20630;-60
2023/07/03 12:17:22;;;;;;;;;;;21.50;53.60;;;;;;5084660;27;19934;-60
2023/07/03 12:19:49;;;;;;;;;;;21.60;53.50;;;;;;5115724;27;19930;-59
2023/07/03 12:22:15;;;;;;;;;;;21.60;53.70;;;;;;5080286;28;20151;-58
2023/07/03 12:24:41;;;;;;;;;;;21.60;53.70;;;;;;5082862;28;20023;-58
2023/07/03 12:27:08;;;;;;;;;;;21.60;53.90;;;;;;5080647;28;20406;-57
2023/07/03 12:29:36;;;;;;;;;;;21.60;53.90;;;;;;5083392;28;20441;-60
2023/07/03 12:32:06;;;;;;;;;;;21.60;54.00;;;;;;5081166;28;19928;-59
2023/07/03 12:34:32;;;;;;;;;;;21.60;54.10;;;;;;5086528;28;19924;-58
2023/07/03 12:37:01;;;;;;;;;;;21.60;54.10;;;;;;5080301;28;20219;-58
2023/07/03 12:39:27;;;;;;;;;;;21.60;54.10;;;;;;5084544;28;19935;-59
2023/07/03 12:41:52;;;;;;;;;;;21.60;54.20;;;;;;5077484;28;19920;-58
2023/07/03 12:44:21;;;;;;;;;;;21.60;54.20;;;;;;5080124;28;20031;-58
2023/07/03 12:46:46;;;;;;;;;;;21.60;54.20;;;;;;5079564;28;19963;-59
2023/07/03 12:49:13;;;;;;;;;;;21.60;54.20;;;;;;5080323;28;20019;-58
2023/07/03 12:54:23;;;;;;;;;;;21.60;53.80;;;;;;5084673;27;19920;-59
2023/07/03 12:56:49;;;;;;;;;;;21.60;53.80;;;;;;5120265;27;20256;-59
2023/07/03 12:59:16;;;;;;;;;;;21.60;53.50;;;;;;5082389;28;19928;-58
2023/07/03 13:01:45;;;;;;;;;;;21.60;53.30;;;;;;5095474;28;19920;-58
2023/07/03 13:04:11;;;;;;;;;;;21.60;53.20;;;;;;5100894;28;19928;-58
2023/07/03 13:06:37;;;;;;;;;;;21.70;52.90;;;;;;5099521;28;19931;-58
2023/07/03 13:09:03;;;;;;;;;;;21.60;52.70;;;;;;5100734;28;19958;-58
2023/07/03 13:16:51;;;;;;;;;;;21.60;51.90;;;;;;5102231;27;19916;-57
2023/07/03 13:19:34;;;;;;;;;;;21.60;52.20;;;;;;5103388;28;19926;-58
2023/07/03 13:22:01;;;;;;;;;;;21.60;52.10;;;;;;5102150;28;19923;-58
2023/07/03 13:24:27;;;;;;;;;;;21.60;52.00;;;;;;5105542;28;20375;-58
2023/07/03 13:26:53;;;;;;;;;;;21.60;51.50;;;;;;5104544;27;19919;-58
2023/07/03 13:29:21;;;;;;;;;;;21.60;51.50;;;;;;5103805;28;20014;-58
2023/07/03 13:31:47;;;;;;;;;;;21.60;51.80;;;;;;5103804;28;20418;-62
2023/07/03 13:34:15;;;;;;;;;;;21.60;51.70;;;;;;5103483;28;19959;-58
2023/07/03 13:36:43;;;;;;;;;;;21.60;51.70;;;;;;5104476;28;20398;-58
2023/07/03 13:39:11;;;;;;;;;;;21.60;51.70;;;;;;5103269;28;19927;-59
2023/07/03 13:41:38;;;;;;;;;;;21.60;51.40;;;;;;5104665;28;19927;-58
2023/07/03 13:44:05;;;;;;;;;;;21.60;51.60;;;;;;5103677;28;19920;-58
2023/07/03 13:46:31;;;;;;;;;;;21.60;51.70;;;;;;5102355;28;19919;-58
2023/07/03 13:48:56;;;;;;;;;;;21.60;51.70;;;;;;5106196;28;20055;-57
2023/07/03 13:51:22;;;;;;;;;;;21.60;52.00;;;;;;5104129;28;20555;-57
2023/07/03 13:53:50;;;;;;;;;;;21.60;51.40;;;;;;5104191;28;19926;-57
2023/07/03 13:56:17;;;;;;;;;;;21.60;51.20;;;;;;5103523;28;19924;-58
2023/07/03 13:58:42;;;;;;;;;;;21.60;51.30;;;;;;5102991;28;20051;-57
2023/07/03 14:01:08;;;;;;;;;;;21.60;51.30;;;;;;5104942;28;19972;-57
2023/07/03 14:03:33;;;;;;;;;;;21.60;51.10;;;;;;5105570;28;20426;-58
2023/07/03 14:05:59;;;;;;;;;;;21.60;51.10;;;;;;5102695;28;20116;-58
2023/07/03 14:08:27;;;;;;;;;;;21.60;50.90;;;;;;5103991;28;19947;-57
2023/07/03 14:10:52;;;;;;;;;;;21.60;50.90;;;;;;5103683;28;19920;-58
2023/07/03 14:13:18;;;;;;;;;;;21.60;51.10;;;;;;5103165;28;20125;-57
2023/07/03 14:15:43;;;;;;;;;;;21.60;51.10;;;;;;5101569;28;19920;-58
2023/07/03 14:18:09;;;;;;;;;;;21.60;51.30;;;;;;5102809;28;20347;-58
2023/07/03 14:20:34;;;;;;;;;;;21.60;51.20;;;;;;5103960;28;19931;-58
2023/07/03 14:23:00;;;;;;;;;;;21.60;51.20;;;;;;5103248;28;19957;-58
2023/07/03 14:25:26;;;;;;;;;;;21.60;51.20;;;;;;5104398;28;19981;-58
2023/07/03 14:27:51;;;;;;;;;;;21.60;51.30;;;;;;5088110;28;20374;-57
2023/07/03 14:30:17;;;;;;;;;;;21.50;51.50;;;;;;5089122;28;20526;-57
2023/07/03 14:32:42;;;;;;;;;;;21.60;51.50;;;;;;5088566;28;19935;-57
2023/07/03 14:35:09;;;;;;;;;;;21.60;52.00;;;;;;5089160;28;20218;-56
2023/07/03 14:37:35;;;;;;;;;;;21.60;52.40;;;;;;5091311;28;19916;-57
2023/07/03 14:40:00;;;;;;;;;;;21.60;52.60;;;;;;5090032;28;20022;-58
2023/07/03 14:42:26;;;;;;;;;;;21.60;52.80;;;;;;5088265;28;20014;-57
2023/07/03 14:44:52;;;;;;;;;;;21.60;53.00;;;;;;5091102;28;19920;-58
2023/07/03 14:47:18;;;;;;;;;;;21.60;52.90;;;;;;5089648;28;20409;-63
2023/07/03 14:49:46;;;;;;;;;;;21.60;52.80;;;;;;5091920;28;20014;-57
2023/07/03 14:52:15;;;;;;;;;;;21.60;52.80;;;;;;5090119;28;19924;-57
2023/07/03 14:54:42;;;;;;;;;;;21.60;52.80;;;;;;5091712;28;19932;-57
2023/07/03 14:57:07;;;;;;;;;;;21.60;52.80;;;;;;5093192;28;20292;-58
2023/07/03 14:59:33;;;;;;;;;;;21.60;52.80;;;;;;5093687;28;19973;-58
2023/07/03 15:01:59;;;;;;;;;;;21.60;52.80;;;;;;5090601;28;19927;-58
2023/07/03 15:04:24;;;;;;;;;;;21.60;52.80;;;;;;5090202;28;20374;-58